createdAt,value
2022-12-31T00:00:26.542Z,95660.25
2022-12-31T00:01:28.654Z,95654.78
2022-12-31T00:02:31.846Z,95672.28
2022-12-31T00:03:34.778Z,95661.34
2022-12-31T00:04:39.085Z,95655.13
2022-12-31T00:05:41.051Z,95655.44
2022-12-31T00:06:43.967Z,95657.00
2022-12-31T00:07:45.879Z,95657.78
2022-12-31T00:08:49.620Z,95658.53
2022-12-31T00:09:51.627Z,95665.56
2022-12-31T00:10:54.615Z,95660.88
2022-12-31T00:11:56.681Z,95662.41
2022-12-31T00:12:59.659Z,95662.41
2022-12-31T00:14:01.892Z,95672.50
2022-12-31T00:15:06.448Z,95663.13
2022-12-31T00:16:12.656Z,95662.34
2022-12-31T00:17:15.684Z,95666.28
2022-12-31T00:18:19.297Z,95659.25
2022-12-31T00:19:22.236Z,95663.19
2022-12-31T00:20:25.629Z,95672.53
2022-12-31T00:21:30.265Z,95665.56
2022-12-31T00:22:32.210Z,95667.09
2022-12-31T00:23:35.687Z,95665.91
2022-12-31T00:24:37.592Z,95668.22
2022-12-31T00:25:40.543Z,95669.34
2022-12-31T00:26:43.401Z,95671.25
2022-12-31T00:27:45.341Z,95675.88
2022-12-31T00:28:49.198Z,95661.06
2022-12-31T00:29:51.245Z,95663.81
2022-12-31T00:30:54.210Z,95665.34
2022-12-31T00:31:56.136Z,95667.66
2022-12-31T00:32:59.066Z,95672.69
2022-12-31T00:34:01.069Z,95669.97
2022-12-31T00:35:04.247Z,95681.66
2022-12-31T00:36:13.198Z,95676.22
2022-12-31T00:37:18.725Z,95676.97
2022-12-31T00:38:20.689Z,95685.53
2022-12-31T00:39:23.727Z,95689.00
2022-12-31T00:40:25.701Z,95689.38
2022-12-31T00:41:29.620Z,95692.88
2022-12-31T00:42:31.516Z,95695.59
2022-12-31T00:43:35.034Z,95693.22
2022-12-31T00:44:38.048Z,95692.03
2022-12-31T00:45:39.925Z,95687.69
2022-12-31T00:47:43.693Z,95695.56
2022-12-31T00:48:46.975Z,95694.75
2022-12-31T00:49:48.922Z,95698.69
2022-12-31T00:50:52.487Z,95697.94
2022-12-31T00:51:55.728Z,95716.59
2022-12-31T00:52:58.657Z,95711.13
2022-12-31T00:54:02.101Z,95711.88
2022-12-31T00:55:04.567Z,95701.72
2022-12-31T00:56:11.271Z,95709.84
2022-12-31T00:57:16.401Z,95709.47
2022-12-31T00:58:19.391Z,95710.22
2022-12-31T00:59:21.298Z,95712.53
2022-12-31T01:00:24.466Z,95699.19
2022-12-31T01:01:29.280Z,95706.97
2022-12-31T01:02:32.534Z,95707.75
2022-12-31T01:03:34.514Z,95690.16
2022-12-31T01:04:37.645Z,95703.03
2022-12-31T01:05:39.535Z,95710.47
2022-12-31T01:06:43.122Z,95715.09
2022-12-31T01:07:46.409Z,95701.44
2022-12-31T01:08:50.919Z,95716.56
2022-12-31T01:09:53.917Z,95720.06
2022-12-31T01:11:14.272Z,95720.06
2022-12-31T01:12:17.184Z,95722.47
2022-12-31T01:13:19.271Z,95728.69
2022-12-31T01:14:22.277Z,95725.59
2022-12-31T01:15:24.323Z,95727.84
2022-12-31T01:16:30.023Z,95725.50
2022-12-31T01:17:32.090Z,95724.28
2022-12-31T01:18:35.032Z,95745.72
2022-12-31T01:19:38.028Z,95735.16
2022-12-31T01:20:42.042Z,95736.38
2022-12-31T01:21:46.283Z,95739.09
2022-12-31T01:22:49.649Z,95733.28
2022-12-31T01:23:52.744Z,95739.09
2022-12-31T01:24:54.719Z,95747.69
2022-12-31T01:26:00.477Z,95750.41
2022-12-31T01:27:03.401Z,95749.66
2022-12-31T01:28:06.158Z,95749.28
2022-12-31T01:29:11.219Z,95752.78
2022-12-31T01:30:13.601Z,95751.19
2022-12-31T01:31:18.466Z,95750.34
2022-12-31T01:32:21.446Z,95758.91
2022-12-31T01:33:23.382Z,95754.22
2022-12-31T01:34:28.115Z,95757.72
2022-12-31T01:35:30.044Z,95751.06
2022-12-31T01:36:35.086Z,95741.72
2022-12-31T01:37:36.983Z,95763.19
2022-12-31T01:38:42.478Z,95747.94
2022-12-31T01:39:44.482Z,95750.66
2022-12-31T01:40:47.452Z,95744.81
2022-12-31T01:41:50.972Z,95755.38
2022-12-31T01:42:56.417Z,95761.19
2022-12-31T01:44:01.374Z,95762.00
2022-12-31T01:45:03.694Z,95752.63
2022-12-31T01:46:07.016Z,95748.69
2022-12-31T01:47:15.947Z,95760.38
2022-12-31T01:48:23.528Z,95762.72
2022-12-31T01:49:38.825Z,95756.13
2022-12-31T01:50:42.952Z,95765.09
2022-12-31T01:51:49.386Z,95765.50
2022-12-31T01:52:58.006Z,95766.69
2022-12-31T01:54:03.983Z,95764.38
2022-12-31T01:55:14.396Z,95762.44
2022-12-31T01:56:16.859Z,95768.28
2022-12-31T01:57:20.569Z,95778.38
2022-12-31T01:58:28.829Z,95765.09
2022-12-31T01:59:32.895Z,95786.47
2022-12-31T02:00:36.286Z,95775.16
2022-12-31T02:01:39.182Z,95772.81
2022-12-31T02:02:42.310Z,95769.72
2022-12-31T02:03:44.380Z,95774.00
2022-12-31T02:04:48.212Z,95770.88
2022-12-31T02:05:55.088Z,95766.56
2022-12-31T02:07:01.059Z,95766.56
2022-12-31T02:08:03.717Z,95767.34
2022-12-31T02:09:08.444Z,95765.81
2022-12-31T02:10:13.311Z,95773.25
2022-12-31T02:11:25.288Z,95772.09
2022-12-31T02:12:27.284Z,95768.94
2022-12-31T02:13:30.199Z,95769.31
2022-12-31T02:14:34.025Z,95775.97
2022-12-31T02:15:47.253Z,95768.19
2022-12-31T02:16:56.534Z,95768.59
2022-12-31T02:18:08.595Z,95771.31
2022-12-31T02:19:38.581Z,95770.94
2022-12-31T02:21:01.052Z,95781.47
2022-12-31T02:22:10.044Z,95777.97
2022-12-31T02:23:48.688Z,95765.84
2022-12-31T02:25:10.381Z,95774.84
2022-12-31T02:26:45.992Z,95766.97
2022-12-31T02:28:04.166Z,95761.19
2022-12-31T02:29:38.475Z,95767.41
2022-12-31T02:30:44.415Z,95764.69
2022-12-31T02:31:50.934Z,95768.19
2022-12-31T02:33:10.457Z,95776.38
2022-12-31T02:34:18.396Z,95766.66
2022-12-31T02:35:26.001Z,95766.66
2022-12-31T02:36:32.062Z,95762.72
2022-12-31T02:37:36.742Z,95764.69
2022-12-31T02:38:43.466Z,95773.28
2022-12-31T02:39:47.071Z,95763.56
2022-12-31T02:40:50.345Z,95758.09
2022-12-31T02:41:52.865Z,95758.84
2022-12-31T02:42:55.979Z,95762.00
2022-12-31T02:43:57.911Z,95769.00
2022-12-31T02:45:00.929Z,95763.13
2022-12-31T02:46:12.099Z,95759.63
2022-12-31T02:47:23.628Z,95763.13
2022-12-31T02:48:40.423Z,95767.34
2022-12-31T02:49:54.820Z,95775.53
2022-12-31T02:51:06.824Z,95756.41
2022-12-31T02:52:18.036Z,95771.63
2022-12-31T02:53:31.044Z,95759.50
2022-12-31T02:54:40.575Z,95764.56
2022-12-31T02:55:47.621Z,95767.69
2022-12-31T02:56:59.116Z,95759.88
2022-12-31T02:58:08.174Z,95764.56
2022-12-31T02:59:35.881Z,95767.66
2022-12-31T03:01:03.914Z,95763.31
2022-12-31T03:02:16.840Z,95773.41
2022-12-31T03:03:20.360Z,95772.59
2022-12-31T03:04:34.358Z,95773.28
2022-12-31T03:05:41.640Z,95775.63
2022-12-31T03:06:44.215Z,95771.34
2022-12-31T03:07:47.586Z,95777.22
2022-12-31T03:09:07.778Z,95771.75
2022-12-31T03:10:11.393Z,95767.06
2022-12-31T03:11:33.465Z,95769.38
2022-12-31T03:12:48.403Z,95774.09
2022-12-31T03:13:50.437Z,95771.75
2022-12-31T03:14:53.627Z,95765.53
2022-12-31T03:15:56.614Z,95763.56
2022-12-31T03:16:58.559Z,95769.03
2022-12-31T03:18:07.494Z,95777.22
2022-12-31T03:19:27.759Z,95774.91
2022-12-31T03:20:51.158Z,95771.75
2022-12-31T03:22:19.903Z,95785.41
2022-12-31T03:23:25.811Z,95775.66
2022-12-31T03:24:46.299Z,95780.72
2022-12-31T03:25:49.001Z,95784.22
2022-12-31T03:26:50.881Z,95788.50
2022-12-31T03:27:54.161Z,95785.69
2022-12-31T03:28:56.077Z,95782.56
2022-12-31T03:29:59.014Z,95786.06
2022-12-31T03:31:03.489Z,95789.91
2022-12-31T03:32:06.357Z,95791.03
2022-12-31T03:33:11.436Z,95783.22
2022-12-31T03:34:15.645Z,95785.19
2022-12-31T03:35:20.359Z,95775.81
2022-12-31T03:36:23.325Z,95789.47
2022-12-31T03:37:25.216Z,95782.44
2022-12-31T03:38:28.132Z,95791.84
2022-12-31T03:39:30.117Z,95798.47
2022-12-31T03:40:34.912Z,95795.75
2022-12-31T03:41:36.853Z,95799.69
2022-12-31T03:42:39.824Z,95796.94
2022-12-31T03:43:41.769Z,95810.59
2022-12-31T03:44:45.130Z,95802.78
2022-12-31T03:45:49.787Z,95793.38
2022-12-31T03:46:51.762Z,95794.13
2022-12-31T03:47:54.698Z,95802.69
2022-12-31T03:48:58.727Z,95805.03
2022-12-31T03:50:01.661Z,95809.66
2022-12-31T03:51:04.771Z,95795.94
2022-12-31T03:52:08.648Z,95793.13
2022-12-31T03:53:11.782Z,95790.75
2022-12-31T03:54:13.725Z,95796.66
2022-12-31T03:55:16.831Z,95802.53
2022-12-31T03:56:18.786Z,95808.00
2022-12-31T03:57:21.753Z,95798.94
2022-12-31T03:58:23.854Z,95813.75
2022-12-31T03:59:26.889Z,95809.84
2022-12-31T04:00:30.218Z,95810.59
2022-12-31T04:01:32.394Z,95814.19
2022-12-31T04:02:35.558Z,95808.72
2022-12-31T04:03:37.563Z,95815.72
2022-12-31T04:04:42.668Z,95808.22
2022-12-31T04:05:45.662Z,95807.75
2022-12-31T04:06:47.799Z,95813.19
2022-12-31T04:07:52.047Z,95813.19
2022-12-31T04:08:54.028Z,95815.53
2022-12-31T04:09:56.980Z,95813.19
2022-12-31T04:10:58.944Z,95816.28
2022-12-31T04:12:02.130Z,95816.28
2022-12-31T04:13:05.416Z,95821.00
2022-12-31T04:14:07.511Z,95822.97
2022-12-31T04:15:12.526Z,95829.59
2022-12-31T04:16:15.003Z,95832.75
2022-12-31T04:17:18.101Z,95832.75
2022-12-31T04:18:20.104Z,95831.97
2022-12-31T04:19:23.041Z,95827.28
2022-12-31T04:20:27.343Z,95841.38
2022-12-31T04:21:34.792Z,95837.44
2022-12-31T04:22:38.105Z,95833.94
2022-12-31T04:23:39.991Z,95840.19
2022-12-31T04:24:43.685Z,95840.53
2022-12-31T04:25:45.723Z,95855.78
2022-12-31T04:26:48.654Z,95849.47
2022-12-31T04:27:51.496Z,95844.34
2022-12-31T04:28:53.487Z,95855.28
2022-12-31T04:29:56.423Z,95847.44
2022-12-31T04:30:59.211Z,95835.72
2022-12-31T04:32:02.359Z,95847.44
2022-12-31T04:33:04.397Z,95839.25
2022-12-31T04:34:07.457Z,95847.44
2022-12-31T04:35:10.309Z,95853.63
2022-12-31T04:36:14.633Z,95843.41
2022-12-31T04:37:18.314Z,95853.16
2022-12-31T04:38:21.457Z,95851.97
2022-12-31T04:39:24.791Z,95850.44
2022-12-31T04:40:26.746Z,95848.81
2022-12-31T04:41:29.747Z,95855.91
2022-12-31T04:42:33.988Z,95855.13
2022-12-31T04:43:35.908Z,95858.63
2022-12-31T04:44:38.903Z,95865.72
2022-12-31T04:45:41.181Z,95868.44
2022-12-31T04:46:44.259Z,95864.50
2022-12-31T04:47:46.228Z,95870.75
2022-12-31T04:48:49.256Z,95878.19
2022-12-31T04:49:52.235Z,95872.66
2022-12-31T04:50:54.194Z,95879.66
2022-12-31T04:51:58.576Z,95873.84
2022-12-31T04:53:00.521Z,95871.09
2022-12-31T04:54:03.564Z,95872.66
2022-12-31T04:55:06.359Z,95868.38
2022-12-31T04:56:10.319Z,95863.66
2022-12-31T04:57:13.437Z,95859.75
2022-12-31T04:58:15.455Z,95859.00
2022-12-31T04:59:18.467Z,95869.94
2022-12-31T05:00:20.489Z,95868.38
2022-12-31T05:01:23.994Z,95874.19
2022-12-31T05:02:26.576Z,95870.63
2022-12-31T05:03:29.629Z,95874.16
2022-12-31T05:04:32.569Z,95870.63
2022-12-31T05:05:39.025Z,95869.50
2022-12-31T05:06:41.997Z,95868.72
2022-12-31T05:07:45.272Z,95863.31
2022-12-31T05:08:50.080Z,95869.97
2022-12-31T05:09:51.993Z,95869.22
2022-12-31T05:10:55.016Z,95875.03
2022-12-31T05:11:58.784Z,95867.53
2022-12-31T05:13:00.737Z,95880.03
2022-12-31T05:14:03.689Z,95869.09
2022-12-31T05:15:07.052Z,95870.63
2022-12-31T05:16:10.373Z,95869.44
2022-12-31T05:17:12.333Z,95885.84
2022-12-31T05:18:15.823Z,95870.63
2022-12-31T05:19:19.062Z,95872.59
2022-12-31T05:20:20.948Z,95864.38
2022-12-31T05:21:23.925Z,95880.03
2022-12-31T05:22:31.726Z,95874.16
2022-12-31T05:23:36.067Z,95880.78
2022-12-31T05:24:37.998Z,95880.38
2022-12-31T05:25:41.272Z,95872.19
2022-12-31T05:26:43.220Z,95871.41
2022-12-31T05:27:46.404Z,95874.16
2022-12-31T05:28:49.329Z,95883.13
2022-12-31T05:29:51.648Z,95888.59
2022-12-31T05:30:54.666Z,95884.66
2022-12-31T05:31:56.914Z,95883.13
2022-12-31T05:32:59.809Z,95894.06
2022-12-31T05:34:02.846Z,95883.13
2022-12-31T05:35:05.998Z,95880.38
2022-12-31T05:36:09.378Z,95880.78
2022-12-31T05:37:12.058Z,95880.38
2022-12-31T05:38:15.081Z,95886.97
2022-12-31T05:39:18.396Z,95877.56
2022-12-31T05:40:22.003Z,95878.38
2022-12-31T05:41:23.969Z,95878.38
2022-12-31T05:42:27.074Z,95883.03
2022-12-31T05:43:29.279Z,95876.81
2022-12-31T05:44:32.203Z,95877.22
2022-12-31T05:45:34.184Z,95878.41
2022-12-31T05:46:37.132Z,95877.66
2022-12-31T05:47:39.397Z,95874.91
2022-12-31T05:48:42.345Z,95870.63
2022-12-31T05:49:44.375Z,95871.41
2022-12-31T05:50:47.403Z,95872.19
2022-12-31T05:51:49.318Z,95869.00
2022-12-31T05:52:53.107Z,95866.63
2022-12-31T05:53:56.081Z,95865.88
2022-12-31T05:54:59.382Z,95865.88
2022-12-31T05:56:02.431Z,95863.13
2022-12-31T05:57:05.558Z,95864.34
2022-12-31T05:58:08.661Z,95865.09
2022-12-31T05:59:13.152Z,95867.06
2022-12-31T06:00:16.923Z,95871.34
2022-12-31T06:01:20.366Z,95869.00
2022-12-31T06:02:24.165Z,95872.94
2022-12-31T06:03:26.276Z,95872.19
2022-12-31T06:04:29.296Z,95888.59
2022-12-31T06:05:31.318Z,95887.03
2022-12-31T06:06:34.328Z,95892.94
2022-12-31T06:07:36.299Z,95893.69
2022-12-31T06:08:40.495Z,95897.59
2022-12-31T06:09:42.464Z,95895.31
2022-12-31T06:10:46.792Z,95903.50
2022-12-31T06:11:48.890Z,95901.19
2022-12-31T06:12:51.855Z,95894.19
2022-12-31T06:13:53.782Z,95900.81
2022-12-31T06:14:56.789Z,95900.81
2022-12-31T06:15:58.861Z,95902.78
2022-12-31T06:17:02.350Z,95909.78
2022-12-31T06:18:04.553Z,95903.56
2022-12-31T06:19:07.895Z,95902.38
2022-12-31T06:20:13.250Z,95896.91
2022-12-31T06:21:15.941Z,95907.84
2022-12-31T06:22:19.016Z,95910.59
2022-12-31T06:23:21.964Z,95903.56
2022-12-31T06:24:24.867Z,95908.25
2022-12-31T06:25:29.627Z,95907.50
2022-12-31T06:26:33.967Z,95906.72
2022-12-31T06:27:35.985Z,95901.66
2022-12-31T06:28:38.871Z,95909.09
2022-12-31T06:29:40.943Z,95905.56
2022-12-31T06:30:43.957Z,95909.09
2022-12-31T06:31:46.012Z,95912.25
2022-12-31T06:32:48.998Z,95915.34
2022-12-31T06:33:53.408Z,95925.53
2022-12-31T06:34:56.399Z,95920.47
2022-12-31T06:35:59.885Z,95919.69
2022-12-31T06:37:03.107Z,95916.19
2022-12-31T06:38:05.347Z,95916.59
2022-12-31T06:39:08.452Z,95916.59
2022-12-31T06:40:11.762Z,95924.03
2022-12-31T06:41:16.746Z,95920.16
2022-12-31T06:42:20.072Z,95917.84
2022-12-31T06:43:24.010Z,95911.59
2022-12-31T06:44:26.075Z,95917.06
2022-12-31T06:45:29.085Z,95919.44
2022-12-31T06:46:31.086Z,95913.97
2022-12-31T06:47:34.104Z,95912.44
2022-12-31T06:48:36.436Z,95917.91
2022-12-31T06:49:40.809Z,95915.59
2022-12-31T06:50:43.108Z,95914.81
2022-12-31T06:51:47.915Z,95907.78
2022-12-31T06:52:49.827Z,95910.97
2022-12-31T06:53:53.084Z,95912.94
2022-12-31T06:54:56.577Z,95916.81
2022-12-31T06:55:59.077Z,95907.88
2022-12-31T06:57:02.354Z,95908.63
2022-12-31T06:58:06.365Z,95908.25
2022-12-31T06:59:24.079Z,95912.56
2022-12-31T07:00:27.474Z,95918.78
2022-12-31T07:01:49.373Z,95918.78
2022-12-31T07:03:19.297Z,95924.25
2022-12-31T07:04:51.885Z,95926.59
2022-12-31T07:05:59.536Z,95928.88
2022-12-31T07:07:09.009Z,95935.13
2022-12-31T07:08:23.707Z,95933.94
2022-12-31T07:09:33.226Z,95927.28
2022-12-31T07:10:47.188Z,95929.63
2022-12-31T07:12:00.721Z,95933.13
2022-12-31T07:13:20.446Z,95940.53
2022-12-31T07:14:30.350Z,95935.84
2022-12-31T07:15:52.595Z,95935.09
2022-12-31T07:17:05.656Z,95939.78
2022-12-31T07:18:25.555Z,95933.53
2022-12-31T07:19:35.665Z,95935.09
2022-12-31T07:20:39.072Z,95931.59
2022-12-31T07:21:43.994Z,95935.84
2022-12-31T07:22:47.582Z,95939.78
2022-12-31T07:23:50.080Z,95941.31
2022-12-31T07:24:53.990Z,95941.31
2022-12-31T07:26:03.682Z,95941.31
2022-12-31T07:27:21.314Z,95944.81
2022-12-31T07:28:38.466Z,95947.97
2022-12-31T07:29:55.774Z,95949.50
2022-12-31T07:31:07.193Z,95949.50
2022-12-31T07:32:24.655Z,95945.25
2022-12-31T07:33:44.523Z,95947.97
2022-12-31T07:34:56.708Z,95946.00
2022-12-31T07:36:09.365Z,95945.25
2022-12-31T07:37:17.719Z,95944.47
2022-12-31T07:38:30.964Z,95947.97
2022-12-31T07:39:41.747Z,95947.22
2022-12-31T07:40:57.917Z,95956.19
2022-12-31T07:42:08.856Z,95956.94
2022-12-31T07:43:18.072Z,95957.72
2022-12-31T07:44:38.891Z,95956.19
2022-12-31T07:45:50.280Z,95957.72
2022-12-31T07:46:56.124Z,95963.19
2022-12-31T07:48:02.686Z,95965.91
2022-12-31T07:49:10.570Z,95962.41
2022-12-31T07:50:17.443Z,95968.66
2022-12-31T07:51:20.285Z,95970.63
2022-12-31T07:52:23.782Z,95972.16
2022-12-31T07:53:26.577Z,95974.88
2022-12-31T07:54:29.421Z,95970.97
2022-12-31T07:55:31.372Z,95971.75
2022-12-31T07:56:34.420Z,95976.44
2022-12-31T07:57:45.111Z,95981.91
2022-12-31T07:59:09.111Z,95979.59
2022-12-31T08:00:16.215Z,95982.31
2022-12-31T08:01:33.986Z,95983.09
2022-12-31T08:02:58.340Z,95977.63
2022-12-31T08:04:07.203Z,95979.94
2022-12-31T08:05:19.361Z,95982.69
2022-12-31T08:06:31.663Z,95978.78
2022-12-31T08:07:42.422Z,95985.00
2022-12-31T08:08:50.925Z,95981.06
2022-12-31T08:10:04.244Z,95989.28
2022-12-31T08:11:16.639Z,95986.13
2022-12-31T08:12:20.548Z,95984.19
2022-12-31T08:13:22.773Z,95977.53
2022-12-31T08:14:26.780Z,95986.50
2022-12-31T08:15:31.008Z,95984.13
2022-12-31T08:16:34.574Z,95991.13
2022-12-31T08:17:36.857Z,95992.72
2022-12-31T08:18:40.488Z,95995.06
2022-12-31T08:19:43.580Z,95990.75
2022-12-31T08:20:55.468Z,95990.34
2022-12-31T08:22:27.835Z,95989.16
2022-12-31T08:23:37.105Z,95987.97
2022-12-31T08:24:56.828Z,95984.06
2022-12-31T08:26:19.783Z,95996.53
2022-12-31T08:27:33.818Z,95991.41
2022-12-31T08:28:55.365Z,95985.53
2022-12-31T08:30:04.840Z,95994.13
2022-12-31T08:31:17.265Z,95988.22
2022-12-31T08:32:24.938Z,95987.03
2022-12-31T08:33:32.986Z,95978.84
2022-12-31T08:34:47.128Z,95983.09
2022-12-31T08:36:04.536Z,95983.88
2022-12-31T08:37:11.755Z,95977.59
2022-12-31T08:38:23.500Z,95975.63
2022-12-31T08:39:40.889Z,95974.44
2022-12-31T08:40:50.890Z,95974.44
2022-12-31T08:41:55.201Z,95979.09
2022-12-31T08:43:13.601Z,95983.72
2022-12-31T08:44:26.518Z,95975.09
2022-12-31T08:45:37.766Z,95977.44
2022-12-31T08:46:50.824Z,95982.06
2022-12-31T08:48:01.540Z,95981.22
2022-12-31T08:49:06.141Z,95987.03
2022-12-31T08:50:15.166Z,95988.19
2022-12-31T08:51:21.478Z,95990.50
2022-12-31T08:52:26.495Z,95988.91
2022-12-31T08:53:28.932Z,95986.53
2022-12-31T08:54:32.379Z,95973.97
2022-12-31T08:55:35.095Z,95989.53
2022-12-31T08:56:50.345Z,95980.94
2022-12-31T08:58:08.009Z,95979.31
2022-12-31T08:59:24.206Z,95986.28
2022-12-31T09:00:28.934Z,95990.91
2022-12-31T09:01:43.439Z,95998.69
2022-12-31T09:03:27.667Z,95990.09
2022-12-31T09:04:42.745Z,95987.34
2022-12-31T09:05:58.225Z,95988.88
2022-12-31T09:07:04.191Z,95986.50
2022-12-31T09:08:17.803Z,95987.63
2022-12-31T09:09:28.888Z,95981.75
2022-12-31T09:10:35.477Z,95989.09
2022-12-31T09:11:50.858Z,95985.19
2022-12-31T09:13:04.370Z,95996.50
2022-12-31T09:14:22.361Z,95989.06
2022-12-31T09:15:31.391Z,95992.16
2022-12-31T09:16:44.873Z,95996.41
2022-12-31T09:17:50.045Z,95989.78
2022-12-31T09:18:53.327Z,95987.03
2022-12-31T09:19:56.766Z,95987.78
2022-12-31T09:20:59.992Z,95994.03
2022-12-31T09:22:03.580Z,95991.31
2022-12-31T09:23:06.452Z,95996.78
2022-12-31T09:24:13.400Z,95997.13
2022-12-31T09:25:18.276Z,95999.09
2022-12-31T09:26:38.262Z,96007.31
2022-12-31T09:27:46.290Z,95999.88
2022-12-31T09:29:01.252Z,95999.88
2022-12-31T09:30:07.785Z,96002.97
2022-12-31T09:31:17.636Z,95996.72
2022-12-31T09:32:27.659Z,96002.19
2022-12-31T09:33:39.817Z,96002.97
2022-12-31T09:34:49.774Z,95995.53
2022-12-31T09:35:56.051Z,95999.78
2022-12-31T09:37:04.382Z,95999.78
2022-12-31T09:38:15.314Z,95998.22
2022-12-31T09:39:30.065Z,95984.84
2022-12-31T09:41:11.541Z,95993.41
2022-12-31T09:42:53.659Z,95992.59
2022-12-31T09:44:26.265Z,95987.13
2022-12-31T09:45:58.145Z,95991.03
2022-12-31T09:47:46.937Z,95994.13
2022-12-31T09:49:09.637Z,95991.75
2022-12-31T09:50:52.637Z,95992.09
2022-12-31T09:52:08.346Z,95992.47
2022-12-31T09:53:39.439Z,95991.59
2022-12-31T09:54:53.301Z,95983.75
2022-12-31T09:56:03.997Z,95988.38
2022-12-31T09:57:26.692Z,95998.06
2022-12-31T09:58:42.984Z,95990.56
2022-12-31T09:59:52.895Z,95988.94
2022-12-31T10:01:03.325Z,95990.50
2022-12-31T10:02:22.031Z,95982.63
2022-12-31T10:03:40.678Z,95982.19
2022-12-31T10:04:53.245Z,95982.94
2022-12-31T10:06:15.615Z,95988.78
2022-12-31T10:07:31.962Z,95984.09
2022-12-31T10:08:49.342Z,95989.13
2022-12-31T10:10:07.785Z,95981.63
2022-12-31T10:11:17.798Z,95985.47
2022-12-31T10:12:36.090Z,95983.88
2022-12-31T10:13:55.899Z,95984.16
2022-12-31T10:15:14.568Z,95971.91
2022-12-31T10:16:34.873Z,95972.31
2022-12-31T10:17:55.706Z,95969.56
2022-12-31T10:19:24.601Z,95973.41
2022-12-31T10:20:40.100Z,95974.19
2022-12-31T10:22:00.165Z,95965.97
2022-12-31T10:23:21.015Z,95977.69
2022-12-31T10:24:43.423Z,95968.69
2022-12-31T10:26:11.642Z,95976.94
2022-12-31T10:27:49.239Z,95964.06
2022-12-31T10:28:56.389Z,95971.84
2022-12-31T10:30:03.392Z,95974.19
2022-12-31T10:31:14.357Z,95978.81
2022-12-31T10:32:26.259Z,95976.41
2022-12-31T10:33:43.290Z,95969.31
2022-12-31T10:34:56.314Z,95971.28
2022-12-31T10:36:09.306Z,95973.59
2022-12-31T10:37:18.727Z,95970.09
2022-12-31T10:38:30.938Z,95964.63
2022-12-31T10:39:52.651Z,95969.31
2022-12-31T10:42:00.127Z,95971.28
2022-12-31T10:43:31.331Z,95973.25
2022-12-31T10:44:53.948Z,95984.22
2022-12-31T10:46:35.428Z,95982.66
2022-12-31T10:48:06.662Z,95980.72
2022-12-31T10:49:35.126Z,95974.03
2022-12-31T10:51:09.393Z,95980.28
2022-12-31T10:52:54.682Z,95975.59
2022-12-31T10:54:20.204Z,95971.56
2022-12-31T10:55:52.741Z,95980.91
2022-12-31T10:57:32.232Z,95973.88
2022-12-31T10:59:15.385Z,95973.88
2022-12-31T11:00:19.726Z,95965.28
2022-12-31T11:01:33.753Z,95964.53
2022-12-31T11:03:13.172Z,95962.19
2022-12-31T11:04:40.155Z,95958.69
2022-12-31T11:06:04.133Z,95955.19
2022-12-31T11:07:41.103Z,95961.44
2022-12-31T11:09:03.755Z,95965.28
2022-12-31T11:10:30.573Z,95967.63
2022-12-31T11:11:38.685Z,95969.94
2022-12-31T11:13:13.674Z,95967.56
2022-12-31T11:14:49.237Z,95963.59
2022-12-31T11:16:16.340Z,95965.13
2022-12-31T11:17:33.382Z,95966.69
2022-12-31T11:18:43.516Z,95964.28
2022-12-31T11:19:58.704Z,95963.09
2022-12-31T11:21:21.607Z,95965.81
2022-12-31T11:22:41.844Z,95957.59
2022-12-31T11:23:56.656Z,95957.94
2022-12-31T11:25:19.782Z,95957.19
2022-12-31T11:26:35.751Z,95960.69
2022-12-31T11:27:51.616Z,95947.75
2022-12-31T11:29:27.082Z,95950.06
2022-12-31T11:30:42.260Z,95953.16
2022-12-31T11:32:10.419Z,95943.72
2022-12-31T11:33:30.661Z,95941.78
2022-12-31T11:35:06.142Z,95940.97
2022-12-31T11:36:20.647Z,95939.78
2022-12-31T11:37:41.539Z,95931.91
2022-12-31T11:38:51.157Z,95929.94
2022-12-31T11:40:02.150Z,95933.44
2022-12-31T11:41:09.035Z,95927.53
2022-12-31T11:42:20.666Z,95927.88
2022-12-31T11:43:29.876Z,95921.19
2022-12-31T11:44:44.212Z,95918.03
2022-12-31T11:46:04.257Z,95921.53
2022-12-31T11:47:33.657Z,95920.78
2022-12-31T11:48:41.589Z,95926.25
2022-12-31T11:50:12.399Z,95920.78
2022-12-31T11:51:34.570Z,95923.16
2022-12-31T11:52:55.395Z,95925.91
2022-12-31T11:54:25.550Z,95919.22
2022-12-31T11:55:42.393Z,95919.22
2022-12-31T11:56:51.448Z,95920.00
2022-12-31T11:57:54.861Z,95916.47
2022-12-31T11:58:57.952Z,95912.97
2022-12-31T12:00:14.514Z,95909.03
2022-12-31T12:01:22.586Z,95917.28
2022-12-31T12:02:28.930Z,95910.22
2022-12-31T12:03:32.082Z,95911.00
2022-12-31T12:04:35.138Z,95922.31
2022-12-31T12:05:39.458Z,95910.16
2022-12-31T12:06:45.619Z,95905.44
2022-12-31T12:07:50.741Z,95910.16
2022-12-31T12:08:54.501Z,95912.88
2022-12-31T12:09:58.248Z,95907.06
2022-12-31T12:11:06.287Z,95911.00
2022-12-31T12:12:09.532Z,95907.47
2022-12-31T12:13:20.020Z,95907.91
2022-12-31T12:14:23.085Z,95912.63
2022-12-31T12:15:29.733Z,95908.34
2022-12-31T12:16:31.694Z,95913.06
2022-12-31T12:17:35.464Z,95916.22
2022-12-31T12:18:43.376Z,95917.41
2022-12-31T12:19:54.793Z,95910.41
2022-12-31T12:21:10.850Z,95921.78
2022-12-31T12:22:18.876Z,95915.94
2022-12-31T12:23:26.297Z,95911.69
2022-12-31T12:24:30.911Z,95913.22
2022-12-31T12:25:38.062Z,95915.94
2022-12-31T12:26:44.512Z,95917.16
2022-12-31T12:27:47.552Z,95921.88
2022-12-31T12:28:50.410Z,95916.41
2022-12-31T12:29:52.361Z,95917.16
2022-12-31T12:30:58.131Z,95924.19
2022-12-31T12:32:02.738Z,95919.16
2022-12-31T12:33:05.718Z,95925.75
2022-12-31T12:34:23.888Z,95920.59
2022-12-31T12:35:29.157Z,95919.72
2022-12-31T12:36:33.175Z,95916.56
2022-12-31T12:37:36.216Z,95915.38
2022-12-31T12:38:40.824Z,95913.84
2022-12-31T12:39:43.727Z,95916.91
2022-12-31T12:40:55.903Z,95912.19
2022-12-31T12:42:04.432Z,95907.47
2022-12-31T12:43:07.638Z,95912.19
2022-12-31T12:44:16.823Z,95916.91
2022-12-31T12:45:21.333Z,95913.06
2022-12-31T12:46:33.104Z,95910.75
2022-12-31T12:47:35.425Z,95912.38
2022-12-31T12:48:41.691Z,95912.38
2022-12-31T12:49:47.663Z,95917.00
2022-12-31T12:50:50.145Z,95913.84
2022-12-31T12:52:16.363Z,95907.91
2022-12-31T12:53:33.439Z,95903.97
2022-12-31T12:54:52.169Z,95913.72
2022-12-31T12:56:06.185Z,95915.28
2022-12-31T12:57:18.416Z,95915.28
2022-12-31T12:58:38.326Z,95907.81
2022-12-31T13:00:01.386Z,95920.00
2022-12-31T13:01:11.709Z,95917.69
2022-12-31T13:02:36.793Z,95916.13
2022-12-31T13:04:39.581Z,95916.47
2022-12-31T13:05:57.756Z,95916.81
2022-12-31T13:07:16.999Z,95913.72
2022-12-31T13:08:33.460Z,95919.22
2022-12-31T13:09:56.793Z,95914.19
2022-12-31T13:11:15.790Z,95918.88
2022-12-31T13:12:26.457Z,95911.84
2022-12-31T13:13:39.002Z,95901.66
2022-12-31T13:14:49.776Z,95906.72
2022-12-31T13:16:00.873Z,95899.66
2022-12-31T13:17:12.831Z,95907.91
2022-12-31T13:18:40.419Z,95897.28
2022-12-31T13:19:51.777Z,95896.84
2022-12-31T13:21:00.464Z,95894.88
2022-12-31T13:22:09.664Z,95890.94
2022-12-31T13:23:20.543Z,95894.03
2022-12-31T13:24:34.468Z,95895.56
2022-12-31T13:26:03.266Z,95893.59
2022-12-31T13:27:13.637Z,95893.16
2022-12-31T13:28:19.307Z,95899.41
2022-12-31T13:29:25.931Z,95900.19
2022-12-31T13:30:34.507Z,95898.22
2022-12-31T13:31:40.350Z,95894.69
2022-12-31T13:32:47.121Z,95898.66